sensor_id;sensor_type;location;lat;lon;timestamp;P1;durP1;ratioP1;P2;durP2;ratioP2
65863;SDS011;52639;51.180;20.460;2023-05-15T00:01:05;7.28;;;4.68;;
65863;SDS011;52639;51.180;20.460;2023-05-15T00:05:07;7.53;;;4.28;;
65863;SDS011;52639;51.180;20.460;2023-05-15T00:09:10;7.05;;;4.10;;
65863;SDS011;52639;51.180;20.460;2023-05-15T00:13:15;6.13;;;4.05;;
65863;SDS011;52639;51.180;20.460;2023-05-15T00:17:18;7.30;;;4.60;;
65863;SDS011;52639;51.180;20.460;2023-05-15T00:21:21;7.22;;;4.10;;
65863;SDS011;52639;51.180;20.460;2023-05-15T00:25:24;6.75;;;4.28;;
65863;SDS011;52639;51.180;20.460;2023-05-15T00:29:28;7.50;;;4.97;;
65863;SDS011;52639;51.180;20.460;2023-05-15T00:33:31;8.68;;;5.25;;
65863;SDS011;52639;51.180;20.460;2023-05-15T00:37:34;5.97;;;4.45;;
65863;SDS011;52639;51.180;20.460;2023-05-15T00:41:37;6.60;;;4.63;;
65863;SDS011;52639;51.180;20.460;2023-05-15T00:45:43;5.95;;;4.18;;
65863;SDS011;52639;51.180;20.460;2023-05-15T00:49:47;7.10;;;4.50;;
65863;SDS011;52639;51.180;20.460;2023-05-15T00:53:51;6.57;;;4.13;;
65863;SDS011;52639;51.180;20.460;2023-05-15T00:57:54;8.60;;;4.65;;
65863;SDS011;52639;51.180;20.460;2023-05-15T01:01:59;6.03;;;4.10;;
65863;SDS011;52639;51.180;20.460;2023-05-15T01:06:02;6.50;;;4.28;;
65863;SDS011;52639;51.180;20.460;2023-05-15T01:10:06;6.35;;;4.60;;
65863;SDS011;52639;51.180;20.460;2023-05-15T01:14:10;6.63;;;4.20;;
65863;SDS011;52639;51.180;20.460;2023-05-15T01:18:14;8.23;;;4.60;;
65863;SDS011;52639;51.180;20.460;2023-05-15T01:26:51;7.85;;;4.50;;
65863;SDS011;52639;51.180;20.460;2023-05-15T01:31:22;8.63;;;4.82;;
65863;SDS011;52639;51.180;20.460;2023-05-15T01:35:30;5.80;;;4.18;;
65863;SDS011;52639;51.180;20.460;2023-05-15T01:39:34;7.03;;;4.95;;
65863;SDS011;52639;51.180;20.460;2023-05-15T01:43:41;8.15;;;4.35;;
65863;SDS011;52639;51.180;20.460;2023-05-15T01:47:48;6.60;;;4.10;;
65863;SDS011;52639;51.180;20.460;2023-05-15T01:51:54;6.13;;;3.60;;
65863;SDS011;52639;51.180;20.460;2023-05-15T01:56:01;7.50;;;4.18;;
65863;SDS011;52639;51.180;20.460;2023-05-15T02:00:05;4.72;;;3.55;;
65863;SDS011;52639;51.180;20.460;2023-05-15T02:04:11;7.90;;;3.83;;
65863;SDS011;52639;51.180;20.460;2023-05-15T02:08:15;5.57;;;3.78;;
65863;SDS011;52639;51.180;20.460;2023-05-15T02:12:18;5.60;;;3.60;;
65863;SDS011;52639;51.180;20.460;2023-05-15T02:16:22;4.28;;;3.35;;
65863;SDS011;52639;51.180;20.460;2023-05-15T02:20:26;4.70;;;3.35;;
65863;SDS011;52639;51.180;20.460;2023-05-15T02:24:29;6.38;;;3.30;;
65863;SDS011;52639;51.180;20.460;2023-05-15T02:28:33;5.55;;;3.58;;
65863;SDS011;52639;51.180;20.460;2023-05-15T02:36:53;6.72;;;4.10;;
65863;SDS011;52639;51.180;20.460;2023-05-15T02:40:59;7.13;;;4.70;;
65863;SDS011;52639;51.180;20.460;2023-05-15T02:45:03;6.03;;;4.13;;
65863;SDS011;52639;51.180;20.460;2023-05-15T02:49:08;5.60;;;3.85;;
65863;SDS011;52639;51.180;20.460;2023-05-15T02:53:14;6.80;;;4.00;;
65863;SDS011;52639;51.180;20.460;2023-05-15T02:57:17;4.82;;;3.85;;
65863;SDS011;52639;51.180;20.460;2023-05-15T03:01:20;9.27;;;5.03;;
65863;SDS011;52639;51.180;20.460;2023-05-15T03:05:23;6.68;;;4.47;;
65863;SDS011;52639;51.180;20.460;2023-05-15T03:09:27;9.00;;;5.10;;
65863;SDS011;52639;51.180;20.460;2023-05-15T03:13:30;8.02;;;4.70;;
65863;SDS011;52639;51.180;20.460;2023-05-15T03:17:33;7.63;;;4.70;;
65863;SDS011;52639;51.180;20.460;2023-05-15T03:21:36;7.05;;;4.65;;
65863;SDS011;52639;51.180;20.460;2023-05-15T03:25:40;6.95;;;5.07;;
65863;SDS011;52639;51.180;20.460;2023-05-15T03:29:43;8.77;;;4.60;;
65863;SDS011;52639;51.180;20.460;2023-05-15T03:33:45;8.70;;;5.25;;
65863;SDS011;52639;51.180;20.460;2023-05-15T03:37:49;12.80;;;7.20;;
65863;SDS011;52639;51.180;20.460;2023-05-15T03:41:54;19.45;;;10.55;;
65863;SDS011;52639;51.180;20.460;2023-05-15T03:45:57;11.85;;;7.10;;
65863;SDS011;52639;51.180;20.460;2023-05-15T03:50:00;13.95;;;7.28;;
65863;SDS011;52639;51.180;20.460;2023-05-15T03:54:04;10.00;;;6.05;;
65863;SDS011;52639;51.180;20.460;2023-05-15T03:58:08;11.25;;;6.07;;
65863;SDS011;52639;51.180;20.460;2023-05-15T04:02:11;11.68;;;6.50;;
65863;SDS011;52639;51.180;20.460;2023-05-15T04:06:14;13.45;;;7.45;;
65863;SDS011;52639;51.180;20.460;2023-05-15T04:10:17;12.20;;;7.07;;
65863;SDS011;52639;51.180;20.460;2023-05-15T04:14:21;8.85;;;5.88;;
65863;SDS011;52639;51.180;20.460;2023-05-15T04:18:24;10.82;;;7.20;;
65863;SDS011;52639;51.180;20.460;2023-05-15T04:22:27;11.55;;;7.43;;
65863;SDS011;52639;51.180;20.460;2023-05-15T04:26:29;16.77;;;7.40;;
65863;SDS011;52639;51.180;20.460;2023-05-15T04:30:34;9.80;;;7.35;;
65863;SDS011;52639;51.180;20.460;2023-05-15T04:34:37;12.25;;;7.85;;
65863;SDS011;52639;51.180;20.460;2023-05-15T04:38:40;12.85;;;6.72;;
65863;SDS011;52639;51.180;20.460;2023-05-15T04:42:43;11.40;;;6.78;;
65863;SDS011;52639;51.180;20.460;2023-05-15T04:46:48;13.55;;;7.15;;
65863;SDS011;52639;51.180;20.460;2023-05-15T04:50:50;15.57;;;7.38;;
65863;SDS011;52639;51.180;20.460;2023-05-15T04:54:53;16.15;;;8.70;;
65863;SDS011;52639;51.180;20.460;2023-05-15T04:58:56;12.65;;;7.80;;
65863;SDS011;52639;51.180;20.460;2023-05-15T05:03:01;14.20;;;8.55;;
65863;SDS011;52639;51.180;20.460;2023-05-15T05:07:04;11.38;;;7.25;;
65863;SDS011;52639;51.180;20.460;2023-05-15T05:11:07;12.48;;;7.40;;
65863;SDS011;52639;51.180;20.460;2023-05-15T05:15:10;14.10;;;8.23;;
65863;SDS011;52639;51.180;20.460;2023-05-15T05:19:15;12.63;;;8.23;;
65863;SDS011;52639;51.180;20.460;2023-05-15T05:23:18;12.65;;;7.80;;
65863;SDS011;52639;51.180;20.460;2023-05-15T05:27:21;12.57;;;8.52;;
65863;SDS011;52639;51.180;20.460;2023-05-15T05:31:24;14.20;;;8.57;;
65863;SDS011;52639;51.180;20.460;2023-05-15T05:35:28;14.63;;;8.10;;
65863;SDS011;52639;51.180;20.460;2023-05-15T05:39:31;14.38;;;8.50;;
65863;SDS011;52639;51.180;20.460;2023-05-15T05:43:34;14.15;;;8.82;;
65863;SDS011;52639;51.180;20.460;2023-05-15T05:47:37;13.68;;;8.25;;
65863;SDS011;52639;51.180;20.460;2023-05-15T05:51:41;11.50;;;9.10;;
65863;SDS011;52639;51.180;20.460;2023-05-15T05:55:47;14.98;;;8.13;;
65863;SDS011;52639;51.180;20.460;2023-05-15T05:59:51;12.07;;;8.40;;
65863;SDS011;52639;51.180;20.460;2023-05-15T06:03:54;11.30;;;8.60;;
65863;SDS011;52639;51.180;20.460;2023-05-15T06:07:59;15.93;;;8.80;;
65863;SDS011;52639;51.180;20.460;2023-05-15T06:12:05;12.30;;;7.53;;
65863;SDS011;52639;51.180;20.460;2023-05-15T06:16:09;12.65;;;7.68;;
65863;SDS011;52639;51.180;20.460;2023-05-15T06:20:12;10.93;;;7.68;;
65863;SDS011;52639;51.180;20.460;2023-05-15T06:24:18;12.30;;;7.38;;
65863;SDS011;52639;51.180;20.460;2023-05-15T06:28:21;14.75;;;6.97;;
65863;SDS011;52639;51.180;20.460;2023-05-15T06:32:24;9.77;;;7.03;;
65863;SDS011;52639;51.180;20.460;2023-05-15T06:36:28;10.50;;;6.43;;
65863;SDS011;52639;51.180;20.460;2023-05-15T06:40:33;11.50;;;7.03;;
65863;SDS011;52639;51.180;20.460;2023-05-15T06:44:36;11.13;;;7.00;;
65863;SDS011;52639;51.180;20.460;2023-05-15T06:48:39;13.15;;;7.00;;
65863;SDS011;52639;51.180;20.460;2023-05-15T06:52:42;10.18;;;6.47;;
65863;SDS011;52639;51.180;20.460;2023-05-15T06:56:47;14.10;;;12.57;;
65863;SDS011;52639;51.180;20.460;2023-05-15T07:00:50;10.77;;;7.13;;
65863;SDS011;52639;51.180;20.460;2023-05-15T07:04:53;11.45;;;5.35;;
65863;SDS011;52639;51.180;20.460;2023-05-15T07:08:56;14.73;;;10.35;;
65863;SDS011;52639;51.180;20.460;2023-05-15T07:13:01;30.00;;;14.32;;
65863;SDS011;52639;51.180;20.460;2023-05-15T07:17:04;153.88;;;61.83;;
65863;SDS011;52639;51.180;20.460;2023-05-15T07:21:07;56.30;;;34.03;;
65863;SDS011;52639;51.180;20.460;2023-05-15T07:25:10;27.85;;;15.13;;
65863;SDS011;52639;51.180;20.460;2023-05-15T07:29:14;18.92;;;12.52;;
65863;SDS011;52639;51.180;20.460;2023-05-15T07:33:17;12.63;;;8.25;;
65863;SDS011;52639;51.180;20.460;2023-05-15T07:37:20;17.90;;;9.15;;
65863;SDS011;52639;51.180;20.460;2023-05-15T07:41:23;12.00;;;8.32;;
65863;SDS011;52639;51.180;20.460;2023-05-15T07:45:27;13.63;;;9.52;;
65863;SDS011;52639;51.180;20.460;2023-05-15T07:49:31;12.50;;;7.32;;
65863;SDS011;52639;51.180;20.460;2023-05-15T07:53:34;21.45;;;15.43;;
65863;SDS011;52639;51.180;20.460;2023-05-15T07:57:37;16.05;;;11.57;;
65863;SDS011;52639;51.180;20.460;2023-05-15T08:01:42;11.88;;;7.40;;
65863;SDS011;52639;51.180;20.460;2023-05-15T08:05:46;12.98;;;11.45;;
65863;SDS011;52639;51.180;20.460;2023-05-15T08:09:49;7.40;;;6.13;;
65863;SDS011;52639;51.180;20.460;2023-05-15T08:13:53;12.95;;;8.68;;
65863;SDS011;52639;51.180;20.460;2023-05-15T08:17:58;12.82;;;11.13;;
65863;SDS011;52639;51.180;20.460;2023-05-15T08:22:01;16.58;;;13.02;;
65863;SDS011;52639;51.180;20.460;2023-05-15T08:26:04;9.30;;;6.22;;
65863;SDS011;52639;51.180;20.460;2023-05-15T08:30:08;16.17;;;11.13;;
65863;SDS011;52639;51.180;20.460;2023-05-15T08:34:13;182.23;;;81.65;;
65863;SDS011;52639;51.180;20.460;2023-05-15T08:38:20;235.48;;;76.18;;
65863;SDS011;52639;51.180;20.460;2023-05-15T08:42:24;54.13;;;28.10;;
65863;SDS011;52639;51.180;20.460;2023-05-15T08:46:33;84.40;;;57.90;;
65863;SDS011;52639;51.180;20.460;2023-05-15T08:50:39;28.95;;;22.95;;
65863;SDS011;52639;51.180;20.460;2023-05-15T08:54:44;19.40;;;17.13;;
65863;SDS011;52639;51.180;20.460;2023-05-15T08:58:48;29.38;;;24.98;;
65863;SDS011;52639;51.180;20.460;2023-05-15T09:02:52;21.25;;;14.80;;
65863;SDS011;52639;51.180;20.460;2023-05-15T09:06:57;229.60;;;85.43;;
65863;SDS011;52639;51.180;20.460;2023-05-15T09:11:02;120.93;;;53.65;;
65863;SDS011;52639;51.180;20.460;2023-05-15T09:15:08;151.05;;;66.95;;
65863;SDS011;52639;51.180;20.460;2023-05-15T09:19:12;35.58;;;26.45;;
65863;SDS011;52639;51.180;20.460;2023-05-15T09:23:25;34.05;;;27.85;;
65863;SDS011;52639;51.180;20.460;2023-05-15T09:27:29;16.58;;;13.30;;
65863;SDS011;52639;51.180;20.460;2023-05-15T09:31:32;18.67;;;10.45;;
65863;SDS011;52639;51.180;20.460;2023-05-15T09:35:37;18.88;;;10.98;;
65863;SDS011;52639;51.180;20.460;2023-05-15T09:39:43;22.60;;;16.40;;
65863;SDS011;52639;51.180;20.460;2023-05-15T09:43:46;98.25;;;41.88;;
65863;SDS011;52639;51.180;20.460;2023-05-15T09:47:49;95.38;;;34.72;;
65863;SDS011;52639;51.180;20.460;2023-05-15T09:51:52;126.22;;;32.55;;
65863;SDS011;52639;51.180;20.460;2023-05-15T09:55:56;57.00;;;16.02;;
65863;SDS011;52639;51.180;20.460;2023-05-15T10:00:00;49.08;;;16.25;;
65863;SDS011;52639;51.180;20.460;2023-05-15T10:08:15;19.65;;;9.43;;
65863;SDS011;52639;51.180;20.460;2023-05-15T10:12:30;17.95;;;10.10;;
65863;SDS011;52639;51.180;20.460;2023-05-15T10:16:37;11.18;;;7.95;;
65863;SDS011;52639;51.180;20.460;2023-05-15T10:20:42;17.33;;;9.95;;
65863;SDS011;52639;51.180;20.460;2023-05-15T10:24:46;10.57;;;6.95;;
65863;SDS011;52639;51.180;20.460;2023-05-15T10:28:55;27.88;;;21.40;;
65863;SDS011;52639;51.180;20.460;2023-05-15T10:32:59;14.70;;;8.73;;
65863;SDS011;52639;51.180;20.460;2023-05-15T10:37:05;10.68;;;7.57;;
65863;SDS011;52639;51.180;20.460;2023-05-15T10:41:09;30.67;;;20.58;;
65863;SDS011;52639;51.180;20.460;2023-05-15T10:45:16;20.30;;;12.07;;
65863;SDS011;52639;51.180;20.460;2023-05-15T10:49:19;15.88;;;9.45;;
65863;SDS011;52639;51.180;20.460;2023-05-15T10:53:22;9.25;;;5.78;;
65863;SDS011;52639;51.180;20.460;2023-05-15T10:57:27;13.55;;;8.43;;
65863;SDS011;52639;51.180;20.460;2023-05-15T11:01:33;23.75;;;8.95;;
65863;SDS011;52639;51.180;20.460;2023-05-15T11:14:41;120.97;;;51.63;;
65863;SDS011;52639;51.180;20.460;2023-05-15T11:18:47;13.38;;;7.18;;
65863;SDS011;52639;51.180;20.460;2023-05-15T11:22:56;10.18;;;6.07;;
65863;SDS011;52639;51.180;20.460;2023-05-15T11:27:01;15.95;;;6.50;;
65863;SDS011;52639;51.180;20.460;2023-05-15T11:31:08;8.93;;;6.90;;
65863;SDS011;52639;51.180;20.460;2023-05-15T11:35:19;26.88;;;7.32;;
65863;SDS011;52639;51.180;20.460;2023-05-15T11:39:24;5.88;;;4.60;;
65863;SDS011;52639;51.180;20.460;2023-05-15T11:43:29;7.63;;;5.00;;
65863;SDS011;52639;51.180;20.460;2023-05-15T11:47:33;7.20;;;5.00;;
65863;SDS011;52639;51.180;20.460;2023-05-15T11:51:38;6.85;;;5.15;;
65863;SDS011;52639;51.180;20.460;2023-05-15T11:55:43;14.10;;;6.93;;
65863;SDS011;52639;51.180;20.460;2023-05-15T11:59:46;33.45;;;21.45;;
65863;SDS011;52639;51.180;20.460;2023-05-15T12:03:50;12.02;;;7.13;;
65863;SDS011;52639;51.180;20.460;2023-05-15T12:07:55;7.75;;;5.38;;
65863;SDS011;52639;51.180;20.460;2023-05-15T12:11:59;15.00;;;8.18;;
65863;SDS011;52639;51.180;20.460;2023-05-15T12:16:04;23.08;;;9.30;;
65863;SDS011;52639;51.180;20.460;2023-05-15T12:20:09;25.30;;;10.32;;
65863;SDS011;52639;51.180;20.460;2023-05-15T12:24:16;17.17;;;7.13;;
65863;SDS011;52639;51.180;20.460;2023-05-15T12:28:22;15.30;;;8.32;;
65863;SDS011;52639;51.180;20.460;2023-05-15T12:32:30;23.85;;;11.55;;
65863;SDS011;52639;51.180;20.460;2023-05-15T12:36:35;10.77;;;5.60;;
65863;SDS011;52639;51.180;20.460;2023-05-15T12:40:40;14.85;;;7.60;;
65863;SDS011;52639;51.180;20.460;2023-05-15T12:44:48;15.45;;;7.15;;
65863;SDS011;52639;51.180;20.460;2023-05-15T12:48:53;11.60;;;6.05;;
65863;SDS011;52639;51.180;20.460;2023-05-15T12:52:59;10.15;;;5.90;;
65863;SDS011;52639;51.180;20.460;2023-05-15T12:57:12;9.73;;;5.30;;
65863;SDS011;52639;51.180;20.460;2023-05-15T13:01:27;7.43;;;4.28;;
65863;SDS011;52639;51.180;20.460;2023-05-15T13:05:31;9.73;;;4.95;;
65863;SDS011;52639;51.180;20.460;2023-05-15T13:09:35;6.43;;;4.43;;
65863;SDS011;52639;51.180;20.460;2023-05-15T13:13:41;4.68;;;3.20;;
65863;SDS011;52639;51.180;20.460;2023-05-15T13:17:52;6.68;;;3.90;;
65863;SDS011;52639;51.180;20.460;2023-05-15T13:21:58;7.15;;;4.32;;
65863;SDS011;52639;51.180;20.460;2023-05-15T13:26:06;7.78;;;5.05;;
65863;SDS011;52639;51.180;20.460;2023-05-15T13:30:14;6.13;;;4.40;;
65863;SDS011;52639;51.180;20.460;2023-05-15T13:34:20;5.45;;;4.18;;
65863;SDS011;52639;51.180;20.460;2023-05-15T13:38:28;6.60;;;4.25;;
65863;SDS011;52639;51.180;20.460;2023-05-15T13:42:35;5.57;;;4.22;;
65863;SDS011;52639;51.180;20.460;2023-05-15T13:46:40;6.32;;;4.03;;
65863;SDS011;52639;51.180;20.460;2023-05-15T13:50:44;6.43;;;3.35;;
65863;SDS011;52639;51.180;20.460;2023-05-15T13:54:47;6.03;;;3.10;;
65863;SDS011;52639;51.180;20.460;2023-05-15T13:58:50;4.72;;;2.40;;
65863;SDS011;52639;51.180;20.460;2023-05-15T14:02:54;3.38;;;2.00;;
65863;SDS011;52639;51.180;20.460;2023-05-15T14:06:58;4.38;;;2.00;;
65863;SDS011;52639;51.180;20.460;2023-05-15T14:11:01;4.88;;;2.97;;
65863;SDS011;52639;51.180;20.460;2023-05-15T14:15:05;1.95;;;1.80;;
65863;SDS011;52639;51.180;20.460;2023-05-15T14:19:12;4.88;;;2.33;;
65863;SDS011;52639;51.180;20.460;2023-05-15T14:23:18;5.93;;;3.17;;
65863;SDS011;52639;51.180;20.460;2023-05-15T14:27:36;4.97;;;2.55;;
65863;SDS011;52639;51.180;20.460;2023-05-15T14:31:39;4.72;;;3.00;;
65863;SDS011;52639;51.180;20.460;2023-05-15T14:35:48;5.20;;;3.15;;
65863;SDS011;52639;51.180;20.460;2023-05-15T14:39:51;5.45;;;3.65;;
65863;SDS011;52639;51.180;20.460;2023-05-15T14:43:54;5.50;;;3.47;;
65863;SDS011;52639;51.180;20.460;2023-05-15T14:48:01;6.80;;;4.03;;
65863;SDS011;52639;51.180;20.460;2023-05-15T14:52:07;5.75;;;3.33;;
65863;SDS011;52639;51.180;20.460;2023-05-15T14:56:11;5.00;;;2.90;;
65863;SDS011;52639;51.180;20.460;2023-05-15T15:00:15;4.72;;;2.75;;
65863;SDS011;52639;51.180;20.460;2023-05-15T15:04:18;7.03;;;3.67;;
65863;SDS011;52639;51.180;20.460;2023-05-15T15:08:23;5.72;;;3.75;;
65863;SDS011;52639;51.180;20.460;2023-05-15T15:12:27;5.57;;;3.13;;
65863;SDS011;52639;51.180;20.460;2023-05-15T15:16:33;6.80;;;3.08;;
65863;SDS011;52639;51.180;20.460;2023-05-15T15:20:41;7.07;;;3.15;;
65863;SDS011;52639;51.180;20.460;2023-05-15T15:24:49;6.82;;;3.10;;
65863;SDS011;52639;51.180;20.460;2023-05-15T15:28:55;3.88;;;2.92;;
65863;SDS011;52639;51.180;20.460;2023-05-15T15:33:00;4.35;;;2.78;;
65863;SDS011;52639;51.180;20.460;2023-05-15T15:37:03;5.57;;;3.22;;
65863;SDS011;52639;51.180;20.460;2023-05-15T15:41:08;5.40;;;3.25;;
65863;SDS011;52639;51.180;20.460;2023-05-15T15:45:11;5.53;;;3.30;;
65863;SDS011;52639;51.180;20.460;2023-05-15T15:49:15;4.82;;;3.30;;
65863;SDS011;52639;51.180;20.460;2023-05-15T15:53:18;4.65;;;2.95;;
65863;SDS011;52639;51.180;20.460;2023-05-15T15:57:23;3.03;;;2.30;;
65863;SDS011;52639;51.180;20.460;2023-05-15T16:01:26;4.75;;;2.63;;
65863;SDS011;52639;51.180;20.460;2023-05-15T16:05:30;7.65;;;3.75;;
65863;SDS011;52639;51.180;20.460;2023-05-15T16:09:34;5.60;;;3.47;;
65863;SDS011;52639;51.180;20.460;2023-05-15T16:13:39;5.55;;;2.72;;
65863;SDS011;52639;51.180;20.460;2023-05-15T16:17:42;4.70;;;2.80;;
65863;SDS011;52639;51.180;20.460;2023-05-15T16:21:44;3.80;;;2.88;;
65863;SDS011;52639;51.180;20.460;2023-05-15T16:25:48;4.40;;;2.75;;
65863;SDS011;52639;51.180;20.460;2023-05-15T16:29:53;3.95;;;2.75;;
65863;SDS011;52639;51.180;20.460;2023-05-15T16:33:56;7.40;;;2.85;;
65863;SDS011;52639;51.180;20.460;2023-05-15T16:38:03;2.67;;;1.85;;
65863;SDS011;52639;51.180;20.460;2023-05-15T16:42:08;3.58;;;2.13;;
65863;SDS011;52639;51.180;20.460;2023-05-15T16:46:13;2.63;;;1.70;;
65863;SDS011;52639;51.180;20.460;2023-05-15T16:50:18;2.35;;;1.83;;
65863;SDS011;52639;51.180;20.460;2023-05-15T16:54:22;3.35;;;1.80;;
65863;SDS011;52639;51.180;20.460;2023-05-15T16:58:25;2.58;;;1.90;;
65863;SDS011;52639;51.180;20.460;2023-05-15T17:02:29;4.10;;;2.25;;
65863;SDS011;52639;51.180;20.460;2023-05-15T17:06:33;5.68;;;2.95;;
65863;SDS011;52639;51.180;20.460;2023-05-15T17:10:37;28.45;;;12.10;;
65863;SDS011;52639;51.180;20.460;2023-05-15T17:14:41;6.28;;;2.97;;
65863;SDS011;52639;51.180;20.460;2023-05-15T17:18:48;4.10;;;2.30;;
65863;SDS011;52639;51.180;20.460;2023-05-15T17:22:51;4.40;;;2.50;;
65863;SDS011;52639;51.180;20.460;2023-05-15T17:26:55;5.50;;;2.30;;
65863;SDS011;52639;51.180;20.460;2023-05-15T17:30:58;6.72;;;5.25;;
65863;SDS011;52639;51.180;20.460;2023-05-15T17:35:03;12.65;;;9.88;;
65863;SDS011;52639;51.180;20.460;2023-05-15T17:39:08;17.83;;;9.82;;
65863;SDS011;52639;51.180;20.460;2023-05-15T17:43:12;17.45;;;10.35;;
65863;SDS011;52639;51.180;20.460;2023-05-15T17:47:16;5.90;;;4.25;;
65863;SDS011;52639;51.180;20.460;2023-05-15T17:51:20;6.97;;;6.13;;
65863;SDS011;52639;51.180;20.460;2023-05-15T17:55:24;10.00;;;6.22;;
65863;SDS011;52639;51.180;20.460;2023-05-15T17:59:27;4.10;;;3.03;;
65863;SDS011;52639;51.180;20.460;2023-05-15T18:03:38;16.38;;;9.75;;
65863;SDS011;52639;51.180;20.460;2023-05-15T18:07:46;31.60;;;24.13;;
65863;SDS011;52639;51.180;20.460;2023-05-15T18:11:49;9.00;;;5.88;;
65863;SDS011;52639;51.180;20.460;2023-05-15T18:15:53;8.80;;;5.63;;
65863;SDS011;52639;51.180;20.460;2023-05-15T18:19:56;9.63;;;5.32;;
65863;SDS011;52639;51.180;20.460;2023-05-15T18:24:01;10.02;;;5.20;;
65863;SDS011;52639;51.180;20.460;2023-05-15T18:28:05;6.30;;;4.30;;
65863;SDS011;52639;51.180;20.460;2023-05-15T18:32:09;6.40;;;4.07;;
65863;SDS011;52639;51.180;20.460;2023-05-15T18:36:12;10.23;;;5.50;;
65863;SDS011;52639;51.180;20.460;2023-05-15T18:40:18;10.45;;;4.72;;
65863;SDS011;52639;51.180;20.460;2023-05-15T18:44:21;8.02;;;4.60;;
65863;SDS011;52639;51.180;20.460;2023-05-15T18:48:24;11.13;;;6.40;;
65863;SDS011;52639;51.180;20.460;2023-05-15T18:52:28;7.55;;;4.05;;
65863;SDS011;52639;51.180;20.460;2023-05-15T18:56:53;8.43;;;4.63;;
65863;SDS011;52639;51.180;20.460;2023-05-15T19:01:34;9.35;;;5.35;;
65863;SDS011;52639;51.180;20.460;2023-05-15T19:05:40;8.73;;;4.57;;
65863;SDS011;52639;51.180;20.460;2023-05-15T19:09:47;8.50;;;5.40;;
65863;SDS011;52639;51.180;20.460;2023-05-15T19:14:22;6.63;;;4.45;;
65863;SDS011;52639;51.180;20.460;2023-05-15T19:18:28;17.40;;;8.93;;
65863;SDS011;52639;51.180;20.460;2023-05-15T19:22:33;9.68;;;5.57;;
65863;SDS011;52639;51.180;20.460;2023-05-15T19:26:38;10.82;;;6.95;;
65863;SDS011;52639;51.180;20.460;2023-05-15T19:30:44;8.60;;;5.60;;
65863;SDS011;52639;51.180;20.460;2023-05-15T19:34:47;10.07;;;5.57;;
65863;SDS011;52639;51.180;20.460;2023-05-15T19:38:50;10.32;;;6.00;;
65863;SDS011;52639;51.180;20.460;2023-05-15T19:42:59;9.88;;;5.47;;
65863;SDS011;52639;51.180;20.460;2023-05-15T19:47:04;8.90;;;5.32;;
65863;SDS011;52639;51.180;20.460;2023-05-15T19:51:14;12.48;;;5.75;;
65863;SDS011;52639;51.180;20.460;2023-05-15T19:55:27;19.90;;;12.07;;
65863;SDS011;52639;51.180;20.460;2023-05-15T19:59:31;22.33;;;11.23;;
65863;SDS011;52639;51.180;20.460;2023-05-15T20:03:51;11.05;;;6.97;;
65863;SDS011;52639;51.180;20.460;2023-05-15T20:07:59;15.05;;;8.05;;
65863;SDS011;52639;51.180;20.460;2023-05-15T20:12:04;12.43;;;7.40;;
65863;SDS011;52639;51.180;20.460;2023-05-15T20:16:08;13.90;;;7.68;;
65863;SDS011;52639;51.180;20.460;2023-05-15T20:20:13;9.85;;;6.03;;
65863;SDS011;52639;51.180;20.460;2023-05-15T20:24:37;11.93;;;6.85;;
65863;SDS011;52639;51.180;20.460;2023-05-15T20:28:41;12.32;;;7.63;;
65863;SDS011;52639;51.180;20.460;2023-05-15T20:32:45;12.43;;;8.20;;
65863;SDS011;52639;51.180;20.460;2023-05-15T20:36:50;15.77;;;9.48;;
65863;SDS011;52639;51.180;20.460;2023-05-15T20:40:54;19.95;;;12.35;;
65863;SDS011;52639;51.180;20.460;2023-05-15T20:44:58;14.63;;;9.38;;
65863;SDS011;52639;51.180;20.460;2023-05-15T20:49:01;13.65;;;7.50;;
65863;SDS011;52639;51.180;20.460;2023-05-15T20:53:11;14.85;;;8.25;;
65863;SDS011;52639;51.180;20.460;2023-05-15T20:57:14;14.70;;;8.88;;
65863;SDS011;52639;51.180;20.460;2023-05-15T21:01:18;21.98;;;13.35;;
65863;SDS011;52639;51.180;20.460;2023-05-15T21:05:22;16.60;;;9.93;;
65863;SDS011;52639;51.180;20.460;2023-05-15T21:09:27;20.88;;;12.68;;
65863;SDS011;52639;51.180;20.460;2023-05-15T21:13:30;16.95;;;10.55;;
65863;SDS011;52639;51.180;20.460;2023-05-15T21:17:33;19.52;;;11.57;;
65863;SDS011;52639;51.180;20.460;2023-05-15T21:21:36;16.63;;;11.13;;
65863;SDS011;52639;51.180;20.460;2023-05-15T21:25:40;20.75;;;12.75;;
65863;SDS011;52639;51.180;20.460;2023-05-15T21:29:44;25.52;;;12.68;;
65863;SDS011;52639;51.180;20.460;2023-05-15T21:33:47;16.55;;;10.23;;
65863;SDS011;52639;51.180;20.460;2023-05-15T21:37:50;15.43;;;9.05;;
65863;SDS011;52639;51.180;20.460;2023-05-15T21:41:55;12.50;;;8.43;;
65863;SDS011;52639;51.180;20.460;2023-05-15T21:45:58;13.00;;;8.00;;
65863;SDS011;52639;51.180;20.460;2023-05-15T21:50:01;14.68;;;6.82;;
65863;SDS011;52639;51.180;20.460;2023-05-15T21:54:04;10.75;;;7.03;;
65863;SDS011;52639;51.180;20.460;2023-05-15T21:58:08;9.93;;;5.93;;
65863;SDS011;52639;51.180;20.460;2023-05-15T22:02:11;7.90;;;4.95;;
65863;SDS011;52639;51.180;20.460;2023-05-15T22:06:14;8.88;;;5.93;;
65863;SDS011;52639;51.180;20.460;2023-05-15T22:10:17;10.77;;;6.13;;
65863;SDS011;52639;51.180;20.460;2023-05-15T22:14:22;7.63;;;5.03;;
65863;SDS011;52639;51.180;20.460;2023-05-15T22:18:25;9.85;;;5.68;;
65863;SDS011;52639;51.180;20.460;2023-05-15T22:22:28;10.30;;;6.05;;
65863;SDS011;52639;51.180;20.460;2023-05-15T22:26:31;10.70;;;6.50;;
65863;SDS011;52639;51.180;20.460;2023-05-15T22:30:35;12.48;;;6.45;;
65863;SDS011;52639;51.180;20.460;2023-05-15T22:34:41;9.95;;;6.32;;
65863;SDS011;52639;51.180;20.460;2023-05-15T22:38:44;9.38;;;6.18;;
65863;SDS011;52639;51.180;20.460;2023-05-15T22:42:47;9.20;;;6.28;;
65863;SDS011;52639;51.180;20.460;2023-05-15T22:46:51;8.90;;;6.18;;
65863;SDS011;52639;51.180;20.460;2023-05-15T22:50:54;11.85;;;7.18;;
65863;SDS011;52639;51.180;20.460;2023-05-15T22:54:57;10.40;;;6.20;;
65863;SDS011;52639;51.180;20.460;2023-05-15T22:59:00;12.85;;;6.65;;
65863;SDS011;52639;51.180;20.460;2023-05-15T23:03:05;12.52;;;6.45;;
65863;SDS011;52639;51.180;20.460;2023-05-15T23:07:08;12.80;;;7.13;;
65863;SDS011;52639;51.180;20.460;2023-05-15T23:11:11;13.60;;;7.38;;
65863;SDS011;52639;51.180;20.460;2023-05-15T23:15:14;17.70;;;8.20;;
65863;SDS011;52639;51.180;20.460;2023-05-15T23:19:19;12.57;;;6.85;;
65863;SDS011;52639;51.180;20.460;2023-05-15T23:23:21;10.48;;;6.25;;
65863;SDS011;52639;51.180;20.460;2023-05-15T23:27:24;12.25;;;7.57;;
65863;SDS011;52639;51.180;20.460;2023-05-15T23:31:27;10.00;;;5.63;;
65863;SDS011;52639;51.180;20.460;2023-05-15T23:35:32;12.73;;;6.18;;
65863;SDS011;52639;51.180;20.460;2023-05-15T23:39:34;7.85;;;5.47;;
65863;SDS011;52639;51.180;20.460;2023-05-15T23:43:37;8.55;;;5.03;;
65863;SDS011;52639;51.180;20.460;2023-05-15T23:47:40;8.27;;;4.60;;
65863;SDS011;52639;51.180;20.460;2023-05-15T23:51:44;9.77;;;5.13;;
65863;SDS011;52639;51.180;20.460;2023-05-15T23:55:47;8.30;;;5.05;;
65863;SDS011;52639;51.180;20.460;2023-05-15T23:59:50;7.63;;;4.65;;
